Baltia — 9HMG9 — position and weather

sailwx.info

Track history (hours):
 
Tides and Currents Weather Stations Pressure Air Temp Water Temp Dewpoint Dewpoint Depression Visibility Wind Speed Wind Dir Waves Ship Positions

Baltia

Last reported at 2017-Mar-23 16:33 UTC. Time now 2017-Mar-27 16:24 UTC.
Position N 52°32' W 009°54'.

Length 224 m; draft 13.7 m.

Type: Cargo ship. MMSI: 249174000.

Date/timePositionNaut miles runAvg speedWind from/ knotsBaromVisibWave heightAir tempDewpointWater temp
2017-Mar-23 16:33N 52°32' W 009°54'5110.0
2017-Mar-23 11:24N 53°20' W 010°22'2412.1
2017-Mar-23 09:27N 53°44' W 010°26'2411.6
2017-Mar-23 07:24N 54°08' W 010°29'2110.4
2017-Mar-23 05:22N 54°28' W 010°17'8 9.8
2017-Mar-23 04:33N 54°34' W 010°09'1110.7
2017-Mar-23 03:33N 54°43' W 009°57'4410.8
2017-Mar-22 23:30N 55°18' W 009°12'1010.8
2017-Mar-22 22:32N 55°26' W 009°01'1110.8
2017-Mar-22 21:33N 55°35' W 008°49'1310.8
2017-Mar-22 20:23N 55°45' W 008°36'910.8
2017-Mar-22 19:33N 55°52' W 008°26'  
2017-Mar-18 19:16N 68°22' E 010°33'7 9.5
2017-Mar-18 18:33N 68°27' E 010°46'11 9.7
2017-Mar-18 17:23N 68°35' E 011°08'8 9.6
2017-Mar-18 16:33N 68°40' E 011°25'  
2017-Mar-16 01:25N 69°03' E 033°05'3 3.5
2017-Mar-16 00:31N 69°01' E 033°02'0 0.0
2017-Mar-15 23:31N 69°01' E 033°02'0 0.0
2017-Mar-15 22:31N 69°01' E 033°02'0 0.0
2017-Mar-15 21:31N 69°01' E 033°02'0 0.0
2017-Mar-15 20:31N 69°01' E 033°02'0 0.2
2017-Mar-15 19:31N 69°00' E 033°02'1 1.5
2017-Mar-15 18:33N 68°59' E 033°04'0 0.1
2017-Mar-15 17:33N 68°59' E 033°04'0 0.0
2017-Mar-15 16:33N 68°59' E 033°04'0 0.0
2017-Mar-15 15:33N 68°59' E 033°04'0 0.0
2017-Mar-15 14:33N 68°59' E 033°04'0 0.0
2017-Mar-15 13:33N 68°59' E 033°04'0 0.0
2017-Mar-15 12:33N 68°59' E 033°04'0 0.0
2017-Mar-15 11:33N 68°59' E 033°04'0 0.0
2017-Mar-15 10:33N 68°59' E 033°04'0 0.0
2017-Mar-15 09:33N 68°59' E 033°04'0 0.0
2017-Mar-15 08:33N 68°59' E 033°04'0 0.0
2017-Mar-15 07:33N 68°59' E 033°04'0 0.0
2017-Mar-15 06:33N 68°59' E 033°04'0 0.0
2017-Mar-15 05:33N 68°59' E 033°04'0 0.0
2017-Mar-15 04:33N 68°59' E 033°04'0 0.0
2017-Mar-15 03:33N 68°59' E 033°04'0 0.0
2017-Mar-15 02:33N 68°59' E 033°04'0 0.0
2017-Mar-15 01:33N 68°59' E 033°04'0 0.0
2017-Mar-15 00:33N 68°59' E 033°04'0 0.0
2017-Mar-14 23:33N 68°59' E 033°04'0 0.0
2017-Mar-14 22:33N 68°59' E 033°04'0 0.0
2017-Mar-14 21:33N 68°59' E 033°04'0 0.0
2017-Mar-14 20:33N 68°59' E 033°04'0 0.5
2017-Mar-14 19:33N 68°59' E 033°03'0 0.2
2017-Mar-14 18:33N 68°59' E 033°03'0 0.0
2017-Mar-14 17:33N 68°59' E 033°03'0 0.0
2017-Mar-14 16:33N 68°59' E 033°03'0 0.0
2017-Mar-14 15:33N 68°59' E 033°03'0 0.0
2017-Mar-14 14:33N 68°59' E 033°03'0 0.0
2017-Mar-14 13:33N 68°59' E 033°03'0 0.0
2017-Mar-14 12:33N 68°59' E 033°03'0 0.0
2017-Mar-14 11:33N 68°59' E 033°03'0 0.0
2017-Mar-14 10:33N 68°59' E 033°03'0 0.0
2017-Mar-14 09:33N 68°59' E 033°03'0 0.0
2017-Mar-14 08:33N 68°59' E 033°03'0 0.0
2017-Mar-14 07:33N 68°59' E 033°03'0 0.0
2017-Mar-14 06:33N 68°59' E 033°03'0 0.0
2017-Mar-14 05:33N 68°59' E 033°03'0 0.0
2017-Mar-14 04:33N 68°59' E 033°03'0 0.0
2017-Mar-14 03:33N 68°59' E 033°03'0 0.0
2017-Mar-14 02:33N 68°59' E 033°03'0 0.0
2017-Mar-14 01:33N 68°59' E 033°03'0 0.0
2017-Mar-14 00:33N 68°59' E 033°03'0 0.0
2017-Mar-13 23:33N 68°59' E 033°03'0 0.0
2017-Mar-13 22:33N 68°59' E 033°03'0 0.0
2017-Mar-13 21:33N 68°59' E 033°03'0 0.0
2017-Mar-13 20:33N 68°59' E 033°03'0 0.0
2017-Mar-13 19:33N 68°59' E 033°03'0 0.0
2017-Mar-13 18:33N 68°59' E 033°03'0 0.0
2017-Mar-13 17:33N 68°59' E 033°03'0 0.0
2017-Mar-13 16:33N 68°59' E 033°03'  
Track history (hours):
 
Tides and Currents Weather Stations Pressure Air Temp Water Temp Dewpoint Dewpoint Depression Visibility Wind Speed Wind Dir Waves Ship Positions

Baltia

Last reported at 2017-Mar-23 16:33 UTC. Time now 2017-Mar-27 16:24 UTC.
Position N 52°32' W 009°54'.

Length 224 m; draft 13.7 m.

Type: Cargo ship. MMSI: 249174000.

Date/timePositionNaut miles runAvg speedWind from/ knotsBaromVisibWave heightAir tempDewpointWater temp
2017-Mar-23 16:33N 52°32' W 009°54'5110.0
2017-Mar-23 11:24N 53°20' W 010°22'2412.1
2017-Mar-23 09:27N 53°44' W 010°26'2411.6
2017-Mar-23 07:24N 54°08' W 010°29'2110.4
2017-Mar-23 05:22N 54°28' W 010°17'8 9.8
2017-Mar-23 04:33N 54°34' W 010°09'1110.7
2017-Mar-23 03:33N 54°43' W 009°57'4410.8
2017-Mar-22 23:30N 55°18' W 009°12'1010.8
2017-Mar-22 22:32N 55°26' W 009°01'1110.8
2017-Mar-22 21:33N 55°35' W 008°49'1310.8
2017-Mar-22 20:23N 55°45' W 008°36'910.8
2017-Mar-22 19:33N 55°52' W 008°26'  
2017-Mar-18 19:16N 68°22' E 010°33'7 9.5
2017-Mar-18 18:33N 68°27' E 010°46'11 9.7
2017-Mar-18 17:23N 68°35' E 011°08'8 9.6
2017-Mar-18 16:33N 68°40' E 011°25'  
2017-Mar-16 01:25N 69°03' E 033°05'3 3.5
2017-Mar-16 00:31N 69°01' E 033°02'0 0.0
2017-Mar-15 23:31N 69°01' E 033°02'0 0.0
2017-Mar-15 22:31N 69°01' E 033°02'0 0.0
2017-Mar-15 21:31N 69°01' E 033°02'0 0.0
2017-Mar-15 20:31N 69°01' E 033°02'0 0.2
2017-Mar-15 19:31N 69°00' E 033°02'1 1.5
2017-Mar-15 18:33N 68°59' E 033°04'0 0.1
2017-Mar-15 17:33N 68°59' E 033°04'0 0.0
2017-Mar-15 16:33N 68°59' E 033°04'0 0.0
2017-Mar-15 15:33N 68°59' E 033°04'0 0.0
2017-Mar-15 14:33N 68°59' E 033°04'0 0.0
2017-Mar-15 13:33N 68°59' E 033°04'0 0.0
2017-Mar-15 12:33N 68°59' E 033°04'0 0.0
2017-Mar-15 11:33N 68°59' E 033°04'0 0.0
2017-Mar-15 10:33N 68°59' E 033°04'0 0.0
2017-Mar-15 09:33N 68°59' E 033°04'0 0.0
2017-Mar-15 08:33N 68°59' E 033°04'0 0.0
2017-Mar-15 07:33N 68°59' E 033°04'0 0.0
2017-Mar-15 06:33N 68°59' E 033°04'0 0.0
2017-Mar-15 05:33N 68°59' E 033°04'0 0.0
2017-Mar-15 04:33N 68°59' E 033°04'0 0.0
2017-Mar-15 03:33N 68°59' E 033°04'0 0.0
2017-Mar-15 02:33N 68°59' E 033°04'0 0.0
2017-Mar-15 01:33N 68°59' E 033°04'0 0.0
2017-Mar-15 00:33N 68°59' E 033°04'0 0.0
2017-Mar-14 23:33N 68°59' E 033°04'0 0.0
2017-Mar-14 22:33N 68°59' E 033°04'0 0.0
2017-Mar-14 21:33N 68°59' E 033°04'0 0.0
2017-Mar-14 20:33N 68°59' E 033°04'0 0.5
2017-Mar-14 19:33N 68°59' E 033°03'0 0.2
2017-Mar-14 18:33N 68°59' E 033°03'0 0.0
2017-Mar-14 17:33N 68°59' E 033°03'0 0.0
2017-Mar-14 16:33N 68°59' E 033°03'0 0.0
2017-Mar-14 15:33N 68°59' E 033°03'0 0.0
2017-Mar-14 14:33N 68°59' E 033°03'0 0.0
2017-Mar-14 13:33N 68°59' E 033°03'0 0.0
2017-Mar-14 12:33N 68°59' E 033°03'0 0.0
2017-Mar-14 11:33N 68°59' E 033°03'0 0.0
2017-Mar-14 10:33N 68°59' E 033°03'0 0.0
2017-Mar-14 09:33N 68°59' E 033°03'0 0.0
2017-Mar-14 08:33N 68°59' E 033°03'0 0.0
2017-Mar-14 07:33N 68°59' E 033°03'0 0.0
2017-Mar-14 06:33N 68°59' E 033°03'0 0.0
2017-Mar-14 05:33N 68°59' E 033°03'0 0.0
2017-Mar-14 04:33N 68°59' E 033°03'0 0.0
2017-Mar-14 03:33N 68°59' E 033°03'0 0.0
2017-Mar-14 02:33N 68°59' E 033°03'0 0.0
2017-Mar-14 01:33N 68°59' E 033°03'0 0.0
2017-Mar-14 00:33N 68°59' E 033°03'0 0.0
2017-Mar-13 23:33N 68°59' E 033°03'0 0.0
2017-Mar-13 22:33N 68°59' E 033°03'0 0.0
2017-Mar-13 21:33N 68°59' E 033°03'0 0.0
2017-Mar-13 20:33N 68°59' E 033°03'0 0.0
2017-Mar-13 19:33N 68°59' E 033°03'0 0.0
2017-Mar-13 18:33N 68°59' E 033°03'0 0.0
2017-Mar-13 17:33N 68°59' E 033°03'0 0.0
2017-Mar-13 16:33N 68°59' E 033°03'  

Dump ship's entire track history